createdAt,value
2018-06-10T00:01:11.783Z,4.87
2018-06-10T00:03:39.888Z,4.30
2018-06-10T00:06:08.426Z,3.90
2018-06-10T00:08:36.490Z,4.13
2018-06-10T00:11:04.565Z,6.30
2018-06-10T00:13:32.631Z,3.90
2018-06-10T00:16:00.714Z,3.03
2018-06-10T00:18:28.786Z,4.70
2018-06-10T00:20:56.869Z,2.97
2018-06-10T00:23:24.947Z,3.43
2018-06-10T00:25:53.015Z,4.40
2018-06-10T00:28:26.466Z,2.83
2018-06-10T00:30:54.542Z,4.23
2018-06-10T00:33:22.922Z,3.40
2018-06-10T00:35:50.998Z,3.20
2018-06-10T00:38:20.527Z,2.80
2018-06-10T00:40:48.591Z,4.73
2018-06-10T00:43:16.926Z,2.90
2018-06-10T00:45:44.993Z,4.13
2018-06-10T00:48:13.077Z,3.70
2018-06-10T00:50:41.136Z,4.30
2018-06-10T00:53:09.208Z,2.73
2018-06-10T00:55:37.265Z,4.63
2018-06-10T00:58:05.335Z,4.90
2018-06-10T01:00:33.431Z,3.07
2018-06-10T01:03:01.541Z,3.87
2018-06-10T01:05:29.571Z,3.83
2018-06-10T01:07:57.690Z,5.10
2018-06-10T01:10:25.790Z,4.53
2018-06-10T01:12:54.115Z,3.00
2018-06-10T01:15:22.194Z,3.37
2018-06-10T01:17:50.267Z,5.40
2018-06-10T01:20:18.717Z,3.03
2018-06-10T01:22:46.795Z,3.67
2018-06-10T01:25:14.862Z,3.57
2018-06-10T01:27:42.939Z,4.83
2018-06-10T01:30:11.026Z,4.93
2018-06-10T01:32:39.382Z,4.50
2018-06-10T01:35:07.946Z,2.63
2018-06-10T01:37:36.019Z,5.87
2018-06-10T01:40:04.086Z,3.27
2018-06-10T01:42:32.164Z,4.30
2018-06-10T01:45:00.231Z,3.67
2018-06-10T01:47:28.303Z,3.03
2018-06-10T01:49:56.383Z,2.30
2018-06-10T01:52:24.767Z,2.83
2018-06-10T01:54:52.831Z,4.00
2018-06-10T01:57:20.903Z,2.30
2018-06-10T01:59:48.967Z,3.10
2018-06-10T02:02:16.834Z,3.23
2018-06-10T02:04:44.902Z,3.27
2018-06-10T02:07:12.972Z,4.00
2018-06-10T02:09:41.038Z,3.17
2018-06-10T02:12:09.165Z,8.73
2018-06-10T02:14:37.466Z,4.17
2018-06-10T02:17:05.523Z,4.70
2018-06-10T02:19:33.578Z,3.57
2018-06-10T02:22:01.631Z,6.27
2018-06-10T02:24:29.707Z,3.63
2018-06-10T02:26:57.768Z,3.93
2018-06-10T02:29:25.841Z,3.70
2018-06-10T02:31:53.903Z,4.97
2018-06-10T02:34:21.985Z,4.53
2018-06-10T02:36:50.534Z,3.20
2018-06-10T02:39:18.603Z,7.53
2018-06-10T02:41:46.663Z,3.73
2018-06-10T02:44:14.990Z,4.90
2018-06-10T02:46:43.062Z,3.10
2018-06-10T02:49:11.146Z,2.83
2018-06-10T02:51:39.218Z,3.30
2018-06-10T02:54:07.547Z,5.13
2018-06-10T02:56:35.614Z,4.40
2018-06-10T02:59:03.797Z,4.67
2018-06-10T03:01:31.864Z,4.40
2018-06-10T03:03:59.926Z,3.73
2018-06-10T03:06:27.982Z,3.13
2018-06-10T03:08:56.059Z,3.13
2018-06-10T03:11:24.118Z,4.57
2018-06-10T03:13:52.191Z,3.23
2018-06-10T03:16:20.249Z,3.53
2018-06-10T03:18:48.322Z,3.93
2018-06-10T03:21:16.379Z,2.83
2018-06-10T03:23:44.460Z,4.90
2018-06-10T03:26:12.531Z,3.00
2018-06-10T03:28:40.614Z,4.47
2018-06-10T03:31:08.670Z,3.67
2018-06-10T03:33:36.742Z,3.13
2018-06-10T03:36:04.830Z,3.93
2018-06-10T03:38:32.898Z,3.90
2018-06-10T03:41:00.952Z,4.23
2018-06-10T03:43:29.024Z,3.70
2018-06-10T03:45:57.096Z,3.40
2018-06-10T03:48:25.164Z,5.63
2018-06-10T03:50:53.218Z,3.23
2018-06-10T03:53:21.544Z,3.10
2018-06-10T03:55:49.598Z,3.77
2018-06-10T03:58:17.670Z,4.77
2018-06-10T04:00:45.732Z,5.80
2018-06-10T04:03:13.793Z,4.57
2018-06-10T04:05:41.858Z,4.83
2018-06-10T04:08:09.922Z,3.10
2018-06-10T04:10:37.981Z,3.57
2018-06-10T04:13:06.042Z,4.10
2018-06-10T04:15:34.383Z,3.53
2018-06-10T04:18:02.455Z,5.87
2018-06-10T04:20:30.531Z,2.87
2018-06-10T04:22:58.607Z,3.77
2018-06-10T04:25:26.682Z,3.47
2018-06-10T04:27:54.742Z,3.47
2018-06-10T04:30:22.814Z,3.30
2018-06-10T04:32:50.895Z,4.83
2018-06-10T04:35:18.970Z,4.00
2018-06-10T04:37:47.034Z,3.07
2018-06-10T04:40:15.110Z,3.07
2018-06-10T04:42:43.179Z,5.13
2018-06-10T04:45:11.255Z,5.30
2018-06-10T04:47:39.390Z,4.73
2018-06-10T04:50:07.471Z,4.27
2018-06-10T04:52:35.539Z,3.40
2018-06-10T04:55:03.713Z,3.23
2018-06-10T04:57:32.090Z,3.40
2018-06-10T05:00:00.174Z,4.57
2018-06-10T05:02:28.255Z,4.07
2018-06-10T05:04:56.336Z,3.43
2018-06-10T05:07:24.391Z,4.00
2018-06-10T05:09:52.470Z,3.03
2018-06-10T05:12:20.542Z,5.47
2018-06-10T05:14:48.623Z,4.50
2018-06-10T05:17:16.690Z,4.00
2018-06-10T05:19:44.837Z,3.77
2018-06-10T05:22:12.838Z,5.43
2018-06-10T05:24:40.906Z,3.97
2018-06-10T05:27:08.970Z,2.67
2018-06-10T05:29:37.049Z,5.10
2018-06-10T05:32:05.102Z,2.93
2018-06-10T05:34:33.174Z,3.57
2018-06-10T05:37:01.230Z,4.40
2018-06-10T05:39:29.299Z,3.20
2018-06-10T05:41:57.366Z,3.83
2018-06-10T05:44:25.439Z,3.83
2018-06-10T05:46:53.511Z,4.20
2018-06-10T05:49:21.571Z,3.60
2018-06-10T05:51:49.907Z,3.90
2018-06-10T05:54:18.205Z,3.20
2018-06-10T05:56:46.278Z,4.73
2018-06-10T05:59:14.550Z,4.40
2018-06-10T06:01:42.615Z,5.80
2018-06-10T06:04:10.665Z,6.03
2018-06-10T06:06:38.734Z,6.10
2018-06-10T06:09:07.533Z,5.50
2018-06-10T06:11:35.827Z,7.17
2018-06-10T06:14:03.928Z,7.90
2018-06-10T06:16:32.004Z,5.93
2018-06-10T06:19:00.076Z,4.60
2018-06-10T06:21:28.142Z,7.67
2018-06-10T06:23:56.210Z,8.77
2018-06-10T06:26:24.283Z,5.50
2018-06-10T06:28:52.342Z,7.03
2018-06-10T06:31:20.398Z,4.90
2018-06-10T06:33:48.468Z,10.13
2018-06-10T06:36:16.536Z,7.63
2018-06-10T06:38:44.598Z,4.90
2018-06-10T06:41:12.662Z,9.23
2018-06-10T06:43:40.722Z,11.20
2018-06-10T06:46:08.782Z,8.73
2018-06-10T06:48:36.844Z,10.10
2018-06-10T06:51:04.914Z,21.37
2018-06-10T06:53:32.982Z,19.23
2018-06-10T06:56:01.310Z,8.13
2018-06-10T06:58:29.375Z,16.73
2018-06-10T07:00:57.755Z,18.00
2018-06-10T07:03:25.843Z,13.63
2018-06-10T07:05:53.958Z,12.57
2018-06-10T07:08:21.998Z,13.40
2018-06-10T07:10:50.091Z,10.00
2018-06-10T07:13:18.390Z,16.10
2018-06-10T07:15:46.463Z,18.27
2018-06-10T07:18:14.534Z,20.90
2018-06-10T07:20:42.890Z,15.93
2018-06-10T07:23:10.957Z,18.83
2018-06-10T07:25:39.034Z,22.77
2018-06-10T07:28:07.105Z,22.37
2018-06-10T07:30:35.050Z,16.80
2018-06-10T07:33:03.114Z,15.07
2018-06-10T07:35:31.178Z,14.03
2018-06-10T07:37:59.240Z,13.60
2018-06-10T07:40:27.417Z,13.67
2018-06-10T07:42:55.465Z,7.03
2018-06-10T07:45:23.527Z,10.60
2018-06-10T07:47:51.586Z,11.27
2018-06-10T07:50:19.648Z,9.60
2018-06-10T07:52:47.708Z,10.57
2018-06-10T07:55:15.763Z,8.10
2018-06-10T07:57:43.827Z,7.63
2018-06-10T08:00:11.915Z,7.67
2018-06-10T08:02:39.942Z,5.47
2018-06-10T08:05:07.998Z,7.93
2018-06-10T08:07:36.063Z,8.70
2018-06-10T08:10:04.134Z,12.43
2018-06-10T08:12:32.199Z,5.53
2018-06-10T08:15:00.262Z,8.67
2018-06-10T08:17:29.215Z,6.93
2018-06-10T08:19:57.598Z,6.17
2018-06-10T08:22:25.671Z,9.80
2018-06-10T08:24:53.743Z,7.40
2018-06-10T08:27:21.943Z,10.00
2018-06-10T08:29:50.006Z,5.60
2018-06-10T08:32:18.079Z,4.10
2018-06-10T08:34:46.131Z,3.23
2018-06-10T08:37:14.194Z,5.70
2018-06-10T08:39:42.247Z,5.03
2018-06-10T08:42:10.314Z,6.20
2018-06-10T08:44:38.635Z,6.07
2018-06-10T08:47:06.702Z,8.67
2018-06-10T08:49:34.755Z,5.87
2018-06-10T08:52:02.826Z,5.27
2018-06-10T08:54:30.898Z,4.70
2018-06-10T08:56:59.247Z,7.20
2018-06-10T08:59:27.263Z,5.77
2018-06-10T09:01:55.335Z,5.70
2018-06-10T09:04:23.395Z,5.33
2018-06-10T09:06:51.466Z,4.47
2018-06-10T09:09:19.850Z,5.43
2018-06-10T09:11:47.911Z,3.80
2018-06-10T09:14:15.978Z,6.47
2018-06-10T09:16:44.054Z,5.37
2018-06-10T09:19:12.119Z,3.87
2018-06-10T09:21:40.186Z,4.60
2018-06-10T09:24:08.257Z,3.90
2018-06-10T09:26:36.311Z,5.40
2018-06-10T09:29:04.379Z,4.60
2018-06-10T09:31:32.438Z,5.07
2018-06-10T09:34:00.523Z,3.83
2018-06-10T09:36:28.580Z,6.67
2018-06-10T09:38:56.650Z,5.23
2018-06-10T09:41:24.710Z,3.10
2018-06-10T09:43:52.800Z,3.33
2018-06-10T09:46:20.859Z,4.13
2018-06-10T09:48:48.927Z,5.17
2018-06-10T09:51:17.003Z,4.27
2018-06-10T09:53:45.059Z,3.23
2018-06-10T09:56:13.122Z,3.23
2018-06-10T09:58:41.195Z,3.23
2018-06-10T10:01:09.251Z,4.37
2018-06-10T10:03:37.325Z,5.50
2018-06-10T10:06:05.395Z,9.23
2018-06-10T10:08:33.466Z,3.50
2018-06-10T10:11:01.522Z,3.27
2018-06-10T10:13:29.619Z,6.90
2018-06-10T10:15:57.682Z,3.20
2018-06-10T10:18:25.758Z,4.03
2018-06-10T10:20:53.834Z,5.00
2018-06-10T10:23:21.894Z,5.23
2018-06-10T10:25:49.970Z,3.70
2018-06-10T10:28:18.103Z,3.20
2018-06-10T10:30:46.158Z,4.37
2018-06-10T10:33:14.227Z,4.10
2018-06-10T10:35:42.295Z,4.00
2018-06-10T10:38:10.371Z,4.60
2018-06-10T10:40:38.436Z,4.83
2018-06-10T10:43:06.511Z,3.43
2018-06-10T10:45:34.579Z,3.30
2018-06-10T10:48:02.650Z,6.80
2018-06-10T10:50:30.731Z,3.17
2018-06-10T10:52:58.819Z,2.73
2018-06-10T10:55:26.970Z,3.10
2018-06-10T10:57:55.050Z,2.87
2018-06-10T11:00:23.210Z,6.20
2018-06-10T11:02:51.599Z,3.37
2018-06-10T11:05:19.763Z,8.17
2018-06-10T11:07:47.838Z,8.97
2018-06-10T11:10:15.902Z,6.20
2018-06-10T11:12:43.974Z,6.20
2018-06-10T11:15:12.046Z,5.50
2018-06-10T11:17:40.098Z,7.60
2018-06-10T11:20:08.399Z,5.93
2018-06-10T11:22:36.452Z,12.47
2018-06-10T11:25:04.626Z,8.50
2018-06-10T11:27:32.682Z,8.33
2018-06-10T11:30:00.986Z,11.40
2018-06-10T11:32:29.043Z,11.83
2018-06-10T11:34:57.119Z,9.97
2018-06-10T11:37:25.175Z,9.97
2018-06-10T11:39:53.247Z,10.20
2018-06-10T11:42:21.561Z,9.17
2018-06-10T11:44:49.590Z,8.93
2018-06-10T11:47:17.975Z,11.93
2018-06-10T11:49:46.062Z,7.37
2018-06-10T11:52:14.175Z,9.30
2018-06-10T11:54:42.211Z,20.13
2018-06-10T11:57:10.275Z,11.07
2018-06-10T11:59:38.350Z,11.30
2018-06-10T12:02:06.421Z,8.67
2018-06-10T12:04:35.281Z,9.63
2018-06-10T12:07:03.375Z,8.80
2018-06-10T12:09:31.450Z,8.97
2018-06-10T12:11:59.546Z,10.27
2018-06-10T12:14:27.710Z,9.27
2018-06-10T12:16:55.844Z,9.10
2018-06-10T12:19:24.049Z,9.23
2018-06-10T12:21:52.189Z,11.07
2018-06-10T12:24:20.538Z,10.57
2018-06-10T12:26:48.595Z,9.60
2018-06-10T12:29:16.991Z,8.13
2018-06-10T12:31:45.022Z,9.03
2018-06-10T12:34:13.091Z,8.70
2018-06-10T12:36:41.154Z,9.83
2018-06-10T12:39:09.579Z,9.03
2018-06-10T12:41:37.671Z,9.27
2018-06-10T12:44:05.747Z,10.33
2018-06-10T12:46:33.983Z,9.80
2018-06-10T12:49:02.106Z,9.93
2018-06-10T12:51:30.170Z,10.53
2018-06-10T12:53:58.222Z,10.00
2018-06-10T12:56:26.287Z,9.57
2018-06-10T12:58:54.364Z,10.50
2018-06-10T13:01:22.455Z,9.83
2018-06-10T13:03:50.505Z,8.13
2018-06-10T13:06:18.598Z,9.37
2018-06-10T13:08:46.646Z,9.93
2018-06-10T13:11:14.718Z,8.03
2018-06-10T13:13:42.794Z,8.27
2018-06-10T13:16:10.866Z,11.03
2018-06-10T13:18:39.039Z,9.40
2018-06-10T13:21:07.118Z,8.97
2018-06-10T13:23:35.178Z,9.43
2018-06-10T13:26:03.250Z,11.10
2018-06-10T13:28:31.311Z,9.00
2018-06-10T13:30:59.426Z,9.07
2018-06-10T13:33:28.690Z,9.33
2018-06-10T13:35:56.763Z,12.07
2018-06-10T13:38:24.854Z,10.90
2018-06-10T13:40:52.939Z,12.30
2018-06-10T13:43:21.321Z,11.53
2018-06-10T13:45:49.412Z,10.80
2018-06-10T13:48:17.463Z,13.07
2018-06-10T13:50:45.530Z,12.10
2018-06-10T13:53:13.850Z,11.20
2018-06-10T13:55:42.659Z,10.40
2018-06-10T13:58:10.732Z,10.50
2018-06-10T14:00:38.862Z,10.07
2018-06-10T14:03:06.927Z,10.27
2018-06-10T14:05:35.002Z,9.40
2018-06-10T14:08:03.376Z,10.27
2018-06-10T14:10:31.454Z,11.83
2018-06-10T14:12:59.523Z,9.63
2018-06-10T14:15:27.609Z,10.40
2018-06-10T14:17:55.683Z,10.33
2018-06-10T14:20:23.786Z,10.63
2018-06-10T14:22:51.834Z,9.77
2018-06-10T14:25:19.951Z,9.97
2018-06-10T14:27:48.030Z,12.00
2018-06-10T14:30:16.184Z,12.00
2018-06-10T14:32:44.200Z,10.73
2018-06-10T14:35:12.145Z,11.83
2018-06-10T14:37:40.222Z,11.43
2018-06-10T14:40:08.310Z,8.30
2018-06-10T14:42:38.718Z,8.67
2018-06-10T14:45:06.793Z,9.87
2018-06-10T14:47:34.900Z,10.63
2018-06-10T14:50:03.235Z,9.73
2018-06-10T14:52:31.315Z,10.30
2018-06-10T14:54:59.309Z,11.80
2018-06-10T14:57:27.351Z,9.23
2018-06-10T14:59:56.178Z,10.10
2018-06-10T15:02:24.255Z,11.60
2018-06-10T15:04:52.326Z,10.57
2018-06-10T15:07:20.422Z,10.40
2018-06-10T15:09:48.539Z,9.00
2018-06-10T15:12:16.618Z,9.27
2018-06-10T15:14:44.691Z,9.97
2018-06-10T15:17:12.776Z,10.53
2018-06-10T15:19:40.838Z,12.30
2018-06-10T15:22:08.918Z,10.73
2018-06-10T15:24:36.990Z,11.87
2018-06-10T15:27:05.454Z,9.47
2018-06-10T15:29:33.520Z,13.03
2018-06-10T15:32:01.867Z,8.90
2018-06-10T15:34:29.939Z,9.70
2018-06-10T15:36:58.023Z,13.83
2018-06-10T15:39:26.091Z,12.63
2018-06-10T15:41:54.182Z,13.03
2018-06-10T15:44:22.251Z,8.47
2018-06-10T15:46:50.355Z,7.37
2018-06-10T15:49:18.427Z,7.07
2018-06-10T15:51:46.499Z,6.40
2018-06-10T15:54:14.557Z,8.13
2018-06-10T15:56:42.919Z,7.63
2018-06-10T15:59:10.982Z,9.27
2018-06-10T16:01:39.087Z,6.27
2018-06-10T16:04:07.164Z,6.17
2018-06-10T16:06:35.502Z,5.93
2018-06-10T16:09:03.597Z,5.43
2018-06-10T16:11:31.670Z,5.67
2018-06-10T16:13:59.744Z,6.67
2018-06-10T16:16:27.890Z,5.53
2018-06-10T16:18:56.102Z,7.33
2018-06-10T16:21:24.208Z,6.87
2018-06-10T16:23:52.262Z,9.57
2018-06-10T16:26:20.322Z,7.20
2018-06-10T16:28:48.634Z,6.90
2018-06-10T16:31:16.716Z,7.07
2018-06-10T16:33:44.769Z,9.67
2018-06-10T16:36:12.836Z,8.00
2018-06-10T16:38:40.907Z,7.73
2018-06-10T16:41:08.979Z,6.40
2018-06-10T16:43:37.048Z,7.23
2018-06-10T16:46:05.120Z,7.43
2018-06-10T16:48:33.656Z,8.10
2018-06-10T16:51:02.210Z,6.90
2018-06-10T16:53:30.279Z,6.53
2018-06-10T16:55:58.366Z,5.67
2018-06-10T16:58:26.422Z,8.70
2018-06-10T17:00:54.500Z,12.23
2018-06-10T17:03:22.573Z,6.03
2018-06-10T17:05:50.634Z,6.90
2018-06-10T17:08:18.709Z,7.37
2018-06-10T17:10:46.775Z,10.37
2018-06-10T17:13:15.149Z,6.50
2018-06-10T17:15:43.242Z,7.57
2018-06-10T17:18:11.322Z,11.57
2018-06-10T17:20:39.370Z,6.20
2018-06-10T17:23:07.443Z,5.87
2018-06-10T17:25:36.098Z,6.03
2018-06-10T17:28:04.270Z,6.70
2018-06-10T17:30:32.342Z,6.00
2018-06-10T17:33:00.527Z,8.83
2018-06-10T17:35:28.582Z,7.07
2018-06-10T17:37:56.651Z,6.87
2018-06-10T17:40:24.707Z,6.23
2018-06-10T17:42:52.770Z,8.03
2018-06-10T17:45:20.839Z,8.13
2018-06-10T17:47:48.923Z,6.93
2018-06-10T17:50:17.210Z,5.67
2018-06-10T17:52:45.281Z,5.93
2018-06-10T17:55:13.362Z,6.87
2018-06-10T17:57:41.435Z,6.83
2018-06-10T18:00:09.607Z,10.37
2018-06-10T18:02:37.678Z,7.07
2018-06-10T18:05:05.744Z,7.60
2018-06-10T18:07:33.821Z,6.30
2018-06-10T18:10:02.116Z,6.00
2018-06-10T18:12:30.201Z,7.70
2018-06-10T18:15:01.236Z,6.83
2018-06-10T18:17:31.503Z,7.20
2018-06-10T18:20:02.099Z,8.60
2018-06-10T18:22:33.230Z,5.87
2018-06-10T18:25:06.329Z,6.00
2018-06-10T18:27:36.101Z,7.70
2018-06-10T18:30:05.321Z,8.70
2018-06-10T18:32:33.386Z,7.10
2018-06-10T18:35:01.524Z,7.07
2018-06-10T18:37:29.614Z,10.97
2018-06-10T18:39:57.694Z,9.37
2018-06-10T18:42:25.757Z,8.60
2018-06-10T18:44:53.826Z,8.80
2018-06-10T18:47:21.895Z,11.27
2018-06-10T18:49:50.069Z,8.57
2018-06-10T18:52:18.134Z,10.57
2018-06-10T18:54:46.215Z,9.57
2018-06-10T18:57:14.491Z,8.43
2018-06-10T18:59:42.562Z,9.80
2018-06-10T19:02:10.643Z,8.80
2018-06-10T19:04:38.710Z,10.77
2018-06-10T19:07:06.772Z,11.80
2018-06-10T19:09:34.857Z,23.57
2018-06-10T19:12:03.183Z,8.40
2018-06-10T19:14:31.288Z,7.63
2018-06-10T19:16:59.442Z,6.97
2018-06-10T19:19:27.812Z,11.83
2018-06-10T19:21:55.923Z,9.87
2018-06-10T19:24:24.009Z,10.10
2018-06-10T19:26:52.098Z,12.33
2018-06-10T19:29:20.211Z,5.63
2018-06-10T19:31:48.246Z,6.93
2018-06-10T19:34:16.319Z,7.57
2018-06-10T19:36:44.387Z,6.77
2018-06-10T19:39:12.488Z,9.30
2018-06-10T19:41:40.565Z,6.80
2018-06-10T19:44:08.918Z,6.73
2018-06-10T19:46:37.000Z,7.13
2018-06-10T19:49:05.152Z,9.17
2018-06-10T19:51:33.340Z,6.20
2018-06-10T19:54:01.461Z,7.03
2018-06-10T19:56:29.527Z,8.10
2018-06-10T19:58:57.610Z,5.50
2018-06-10T20:01:25.688Z,8.83
2018-06-10T20:03:53.994Z,7.27
2018-06-10T20:06:22.062Z,6.40
2018-06-10T20:08:50.144Z,5.80
2018-06-10T20:11:18.251Z,6.07
2018-06-10T20:13:46.334Z,6.70
2018-06-10T20:16:15.200Z,5.13
2018-06-10T20:18:43.523Z,7.03
2018-06-10T20:21:11.578Z,5.17
2018-06-10T20:23:39.657Z,7.23
2018-06-10T20:26:07.717Z,5.67
2018-06-10T20:28:35.766Z,7.03
2018-06-10T20:31:04.115Z,7.60
2018-06-10T20:33:32.162Z,7.00
2018-06-10T20:36:00.238Z,7.53
2018-06-10T20:38:28.287Z,8.57
2018-06-10T20:40:56.354Z,9.13
2018-06-10T20:43:24.423Z,8.60
2018-06-10T20:45:52.534Z,7.73
2018-06-10T20:48:20.606Z,10.47
2018-06-10T20:50:48.667Z,10.80
2018-06-10T20:53:16.729Z,6.03
2018-06-10T20:55:44.806Z,9.10
2018-06-10T20:58:12.863Z,8.50
2018-06-10T21:00:41.224Z,7.03
2018-06-10T21:03:09.299Z,9.30
2018-06-10T21:05:37.382Z,11.93
2018-06-10T21:08:05.587Z,5.93
2018-06-10T21:10:33.666Z,5.30
2018-06-10T21:13:01.743Z,6.93
2018-06-10T21:15:29.850Z,5.90
2018-06-10T21:17:57.718Z,6.00
2018-06-10T21:20:25.802Z,8.37
2018-06-10T21:22:53.892Z,8.50
2018-06-10T21:25:21.955Z,5.67
2018-06-10T21:27:50.335Z,5.70
2018-06-10T21:30:18.411Z,7.03
2018-06-10T21:32:46.487Z,8.20
2018-06-10T21:35:14.546Z,9.03
2018-06-10T21:37:42.600Z,5.30
2018-06-10T21:40:10.676Z,14.30
2018-06-10T21:42:39.108Z,7.73
2018-06-10T21:45:07.456Z,6.87
2018-06-10T21:47:35.652Z,7.30
2018-06-10T21:50:03.586Z,6.50
2018-06-10T21:52:31.650Z,7.23
2018-06-10T21:54:59.734Z,6.97
2018-06-10T21:57:28.055Z,6.17
2018-06-10T21:59:56.153Z,12.07
2018-06-10T22:02:24.223Z,5.77
2018-06-10T22:04:52.315Z,7.67
2018-06-10T22:07:20.395Z,4.50
2018-06-10T22:09:48.497Z,5.30
2018-06-10T22:12:16.579Z,11.97
2018-06-10T22:14:44.685Z,5.73
2018-06-10T22:17:13.016Z,5.07
2018-06-10T22:19:41.426Z,5.57
2018-06-10T22:22:09.491Z,5.47
2018-06-10T22:24:37.863Z,5.37
2018-06-10T22:27:05.918Z,5.70
2018-06-10T22:29:33.998Z,5.93
2018-06-10T22:32:02.327Z,4.80
2018-06-10T22:34:30.374Z,5.23
2018-06-10T22:36:58.488Z,7.57
2018-06-10T22:39:26.539Z,5.63
2018-06-10T22:41:54.890Z,6.57
2018-06-10T22:44:23.021Z,5.40
2018-06-10T22:46:51.069Z,5.73
2018-06-10T22:49:19.146Z,4.50
2018-06-10T22:51:47.206Z,6.73
2018-06-10T22:54:43.686Z,5.20
2018-06-10T22:57:11.791Z,6.53
2018-06-10T22:59:39.860Z,8.73
2018-06-10T23:02:08.732Z,6.23
2018-06-10T23:04:36.803Z,7.43
2018-06-10T23:07:04.940Z,6.87
2018-06-10T23:09:32.963Z,5.93
2018-06-10T23:12:01.031Z,6.00
2018-06-10T23:14:29.363Z,6.07
2018-06-10T23:16:57.427Z,7.40
2018-06-10T23:19:25.711Z,4.97
2018-06-10T23:21:53.783Z,5.17
2018-06-10T23:24:21.850Z,6.57
2018-06-10T23:26:49.926Z,6.43
2018-06-10T23:29:18.003Z,5.37
2018-06-10T23:31:46.342Z,5.77
2018-06-10T23:34:14.424Z,6.03
2018-06-10T23:36:42.747Z,4.93
2018-06-10T23:39:10.818Z,10.57
2018-06-10T23:41:38.895Z,6.33
2018-06-10T23:44:06.959Z,6.57
2018-06-10T23:46:35.055Z,6.50
2018-06-10T23:49:03.118Z,4.53
2018-06-10T23:51:31.230Z,4.70
2018-06-10T23:53:59.541Z,6.07
2018-06-10T23:56:27.623Z,5.47
2018-06-10T23:58:55.707Z,5.77
